map of YZF home
YZF - Airport
Location
City:  Yellowknife, Northwest Territories, Canada
Name:Yellowknife Airport
ICAO:CYZF
IATA:YZF

Details
Type:Airport (Airfield)
Use:Public/Civil
Latitude:6227'47"N (62.463056)
Longitude:11426'25"W (-114.440277)
Elevation:675 ft (206 m)
Variation:16.33E (WMM2015 magnetic declination)
-0.30 annual change
Runways:2
Longest:7503 ft (2287 m), paved

Time
Time Zone:UTC-7 (DST-6)
Local Time:

Weather
METAR:CYZF 230700Z 08009KT 15SM OVC160 M01/M03 A2985 RMK AC8 SLP126
TAF:CYZF 230538Z 2306/2406 11010KT P6SM FEW100 SCT220
FM231000 10010KT P6SM FEW080 SCT240 PROB30 2310/2316 3/4SM BR
FM231600 09010KT P6SM FEW220
RMK NXT FCST BY 231200Z

Related Locations
Nearby:
Farthest:YWKS: 11068 mi / 17812 km
Wilkins Runway (Casey), Upper Peterson Glacier, AQ

Find:

   beyond  
but within

Other Information
Maps:
NOTAMs:
Links:
Sources:

  
  • flag of Canada
  • flag of Northwest Territories
  

Airport Diagram

Airport diagram for YZF

Airport diagram PDF

Sectional Chart

Flight Planning
at skyvector.com

Satellite Image

Google Maps Satellite view

 

Copyright © 2004-2018 Karl L. Swartz. All rights reserved.
The Great Circle Mapper name and logo are trademarks of the Great Circle Mapper.
All other trademarks mentioned herein belong to their respective owners.
Please see credits for attibutions and further copyright information.

  Follow gcmap on Facebook Follow gcmap on Twitter Follow gcmap on Google+ GCmap on LinkedIn

hCard Microformat

Geo Microformat